sensor_id;sensor_type;location;lat;lon;timestamp;P1;durP1;ratioP1;P2;durP2;ratioP2
7657;SDS011;8462;53.156;8.220;2023-01-13T00:01:07;4.90;;;1.43;;
7657;SDS011;8462;53.156;8.220;2023-01-13T00:03:34;6.63;;;1.50;;
7657;SDS011;8462;53.156;8.220;2023-01-13T00:06:03;2.93;;;1.20;;
7657;SDS011;8462;53.156;8.220;2023-01-13T00:08:31;3.87;;;1.20;;
7657;SDS011;8462;53.156;8.220;2023-01-13T00:10:58;6.10;;;1.53;;
7657;SDS011;8462;53.156;8.220;2023-01-13T00:13:25;3.90;;;1.63;;
7657;SDS011;8462;53.156;8.220;2023-01-13T00:15:55;2.30;;;1.20;;
7657;SDS011;8462;53.156;8.220;2023-01-13T00:18:23;3.90;;;1.40;;
7657;SDS011;8462;53.156;8.220;2023-01-13T00:20:56;3.77;;;1.30;;
7657;SDS011;8462;53.156;8.220;2023-01-13T00:23:26;3.13;;;1.30;;
7657;SDS011;8462;53.156;8.220;2023-01-13T00:25:54;4.90;;;1.13;;
7657;SDS011;8462;53.156;8.220;2023-01-13T00:28:22;5.70;;;1.30;;
7657;SDS011;8462;53.156;8.220;2023-01-13T00:30:49;1.63;;;0.97;;
7657;SDS011;8462;53.156;8.220;2023-01-13T00:33:16;2.57;;;1.30;;
7657;SDS011;8462;53.156;8.220;2023-01-13T00:35:43;6.50;;;2.33;;
7657;SDS011;8462;53.156;8.220;2023-01-13T00:38:10;7.70;;;1.57;;
7657;SDS011;8462;53.156;8.220;2023-01-13T00:40:38;3.80;;;1.23;;
7657;SDS011;8462;53.156;8.220;2023-01-13T00:43:05;7.67;;;1.80;;
7657;SDS011;8462;53.156;8.220;2023-01-13T00:45:47;3.60;;;1.17;;
7657;SDS011;8462;53.156;8.220;2023-01-13T00:48:15;5.40;;;1.70;;
7657;SDS011;8462;53.156;8.220;2023-01-13T00:50:43;6.13;;;1.73;;
7657;SDS011;8462;53.156;8.220;2023-01-13T00:53:09;8.40;;;1.47;;
7657;SDS011;8462;53.156;8.220;2023-01-13T00:55:39;6.33;;;1.70;;
7657;SDS011;8462;53.156;8.220;2023-01-13T00:58:06;5.63;;;1.70;;
7657;SDS011;8462;53.156;8.220;2023-01-13T01:00:34;12.17;;;2.47;;
7657;SDS011;8462;53.156;8.220;2023-01-13T01:03:01;7.80;;;2.20;;
7657;SDS011;8462;53.156;8.220;2023-01-13T01:05:28;10.03;;;2.33;;
7657;SDS011;8462;53.156;8.220;2023-01-13T01:07:55;8.77;;;2.10;;
7657;SDS011;8462;53.156;8.220;2023-01-13T01:10:23;7.07;;;2.00;;
7657;SDS011;8462;53.156;8.220;2023-01-13T01:12:51;3.93;;;1.77;;
7657;SDS011;8462;53.156;8.220;2023-01-13T01:15:18;12.83;;;1.97;;
7657;SDS011;8462;53.156;8.220;2023-01-13T01:17:45;9.93;;;2.00;;
7657;SDS011;8462;53.156;8.220;2023-01-13T01:20:11;12.73;;;2.37;;
7657;SDS011;8462;53.156;8.220;2023-01-13T01:22:38;6.03;;;1.97;;
7657;SDS011;8462;53.156;8.220;2023-01-13T01:25:06;3.80;;;1.60;;
7657;SDS011;8462;53.156;8.220;2023-01-13T01:27:34;4.47;;;2.03;;
7657;SDS011;8462;53.156;8.220;2023-01-13T01:30:02;8.23;;;2.00;;
7657;SDS011;8462;53.156;8.220;2023-01-13T01:32:29;6.33;;;1.87;;
7657;SDS011;8462;53.156;8.220;2023-01-13T01:34:59;7.10;;;1.80;;
7657;SDS011;8462;53.156;8.220;2023-01-13T01:37:26;6.83;;;1.70;;
7657;SDS011;8462;53.156;8.220;2023-01-13T01:39:53;9.73;;;2.07;;
7657;SDS011;8462;53.156;8.220;2023-01-13T01:42:21;16.10;;;2.90;;
7657;SDS011;8462;53.156;8.220;2023-01-13T01:45:11;10.33;;;2.87;;
7657;SDS011;8462;53.156;8.220;2023-01-13T01:47:40;12.77;;;3.40;;
7657;SDS011;8462;53.156;8.220;2023-01-13T01:50:08;9.43;;;2.77;;
7657;SDS011;8462;53.156;8.220;2023-01-13T01:52:37;19.37;;;3.97;;
7657;SDS011;8462;53.156;8.220;2023-01-13T01:55:08;21.40;;;3.80;;
7657;SDS011;8462;53.156;8.220;2023-01-13T01:57:40;13.80;;;4.03;;
7657;SDS011;8462;53.156;8.220;2023-01-13T02:00:13;12.17;;;2.73;;
7657;SDS011;8462;53.156;8.220;2023-01-13T02:02:40;28.53;;;4.63;;
7657;SDS011;8462;53.156;8.220;2023-01-13T02:05:11;9.57;;;2.57;;
7657;SDS011;8462;53.156;8.220;2023-01-13T02:07:39;13.43;;;3.80;;
7657;SDS011;8462;53.156;8.220;2023-01-13T02:10:08;15.93;;;3.80;;
7657;SDS011;8462;53.156;8.220;2023-01-13T02:12:38;13.47;;;3.10;;
7657;SDS011;8462;53.156;8.220;2023-01-13T02:15:08;12.73;;;2.87;;
7657;SDS011;8462;53.156;8.220;2023-01-13T02:17:39;9.83;;;3.20;;
7657;SDS011;8462;53.156;8.220;2023-01-13T02:20:43;19.87;;;3.50;;
7657;SDS011;8462;53.156;8.220;2023-01-13T02:26:56;13.00;;;2.73;;
7657;SDS011;8462;53.156;8.220;2023-01-13T02:29:45;13.53;;;2.23;;
7657;SDS011;8462;53.156;8.220;2023-01-13T02:32:37;13.37;;;2.67;;
7657;SDS011;8462;53.156;8.220;2023-01-13T02:35:14;14.33;;;2.57;;
7657;SDS011;8462;53.156;8.220;2023-01-13T02:37:48;15.37;;;2.80;;
7657;SDS011;8462;53.156;8.220;2023-01-13T02:40:17;21.53;;;3.50;;
7657;SDS011;8462;53.156;8.220;2023-01-13T02:42:48;9.93;;;2.70;;
7657;SDS011;8462;53.156;8.220;2023-01-13T02:45:40;13.23;;;3.00;;
7657;SDS011;8462;53.156;8.220;2023-01-13T02:48:11;17.03;;;2.87;;
7657;SDS011;8462;53.156;8.220;2023-01-13T02:50:42;14.53;;;2.83;;
7657;SDS011;8462;53.156;8.220;2023-01-13T02:53:14;14.20;;;2.63;;
7657;SDS011;8462;53.156;8.220;2023-01-13T02:55:45;10.63;;;3.07;;
7657;SDS011;8462;53.156;8.220;2023-01-13T02:58:17;11.23;;;3.43;;
7657;SDS011;8462;53.156;8.220;2023-01-13T03:00:48;12.83;;;2.60;;
7657;SDS011;8462;53.156;8.220;2023-01-13T03:03:15;15.30;;;2.47;;
7657;SDS011;8462;53.156;8.220;2023-01-13T03:05:43;18.70;;;3.70;;
7657;SDS011;8462;53.156;8.220;2023-01-13T03:08:16;21.00;;;3.40;;
7657;SDS011;8462;53.156;8.220;2023-01-13T03:11:01;17.93;;;3.00;;
7657;SDS011;8462;53.156;8.220;2023-01-13T03:13:41;13.87;;;3.80;;
7657;SDS011;8462;53.156;8.220;2023-01-13T03:16:28;11.37;;;2.80;;
7657;SDS011;8462;53.156;8.220;2023-01-13T03:19:06;13.30;;;3.60;;
7657;SDS011;8462;53.156;8.220;2023-01-13T03:21:43;14.93;;;3.17;;
7657;SDS011;8462;53.156;8.220;2023-01-13T03:24:15;11.83;;;2.90;;
7657;SDS011;8462;53.156;8.220;2023-01-13T03:26:45;12.40;;;2.87;;
7657;SDS011;8462;53.156;8.220;2023-01-13T03:29:17;16.07;;;3.17;;
7657;SDS011;8462;53.156;8.220;2023-01-13T03:31:51;12.63;;;2.83;;
7657;SDS011;8462;53.156;8.220;2023-01-13T03:34:22;16.93;;;3.53;;
7657;SDS011;8462;53.156;8.220;2023-01-13T03:36:52;12.90;;;3.40;;
7657;SDS011;8462;53.156;8.220;2023-01-13T03:39:25;16.70;;;3.90;;
7657;SDS011;8462;53.156;8.220;2023-01-13T03:41:56;10.30;;;3.97;;
7657;SDS011;8462;53.156;8.220;2023-01-13T03:44:26;14.97;;;3.57;;
7657;SDS011;8462;53.156;8.220;2023-01-13T03:47:04;17.50;;;4.07;;
7657;SDS011;8462;53.156;8.220;2023-01-13T03:49:37;16.50;;;3.00;;
7657;SDS011;8462;53.156;8.220;2023-01-13T03:52:10;14.27;;;3.03;;
7657;SDS011;8462;53.156;8.220;2023-01-13T03:54:44;16.30;;;3.83;;
7657;SDS011;8462;53.156;8.220;2023-01-13T03:57:15;18.67;;;3.90;;
7657;SDS011;8462;53.156;8.220;2023-01-13T03:59:47;16.33;;;3.60;;
7657;SDS011;8462;53.156;8.220;2023-01-13T04:02:20;15.23;;;3.10;;
7657;SDS011;8462;53.156;8.220;2023-01-13T04:04:55;16.60;;;3.07;;
7657;SDS011;8462;53.156;8.220;2023-01-13T04:07:30;16.87;;;4.30;;
7657;SDS011;8462;53.156;8.220;2023-01-13T04:10:11;16.30;;;3.60;;
7657;SDS011;8462;53.156;8.220;2023-01-13T04:12:43;13.53;;;3.27;;
7657;SDS011;8462;53.156;8.220;2023-01-13T04:15:26;21.27;;;4.07;;
7657;SDS011;8462;53.156;8.220;2023-01-13T04:18:01;16.27;;;3.60;;
7657;SDS011;8462;53.156;8.220;2023-01-13T04:20:36;17.10;;;3.13;;
7657;SDS011;8462;53.156;8.220;2023-01-13T04:23:04;18.53;;;3.70;;
7657;SDS011;8462;53.156;8.220;2023-01-13T04:25:33;18.10;;;3.97;;
7657;SDS011;8462;53.156;8.220;2023-01-13T04:28:00;22.63;;;4.17;;
7657;SDS011;8462;53.156;8.220;2023-01-13T04:30:27;14.67;;;3.43;;
7657;SDS011;8462;53.156;8.220;2023-01-13T04:32:54;12.43;;;3.07;;
7657;SDS011;8462;53.156;8.220;2023-01-13T04:35:23;12.60;;;3.07;;
7657;SDS011;8462;53.156;8.220;2023-01-13T04:37:50;13.77;;;3.60;;
7657;SDS011;8462;53.156;8.220;2023-01-13T04:40:17;17.17;;;4.47;;
7657;SDS011;8462;53.156;8.220;2023-01-13T04:42:44;11.93;;;2.93;;
7657;SDS011;8462;53.156;8.220;2023-01-13T04:45:11;16.33;;;3.73;;
7657;SDS011;8462;53.156;8.220;2023-01-13T04:47:38;14.10;;;3.47;;
7657;SDS011;8462;53.156;8.220;2023-01-13T04:50:07;24.43;;;4.50;;
7657;SDS011;8462;53.156;8.220;2023-01-13T04:52:36;13.33;;;3.20;;
7657;SDS011;8462;53.156;8.220;2023-01-13T04:55:03;17.47;;;3.10;;
7657;SDS011;8462;53.156;8.220;2023-01-13T04:57:31;12.17;;;2.97;;
7657;SDS011;8462;53.156;8.220;2023-01-13T04:59:59;17.30;;;3.13;;
7657;SDS011;8462;53.156;8.220;2023-01-13T05:02:26;17.37;;;3.30;;
7657;SDS011;8462;53.156;8.220;2023-01-13T05:04:53;15.13;;;3.50;;
7657;SDS011;8462;53.156;8.220;2023-01-13T05:07:20;17.80;;;3.40;;
7657;SDS011;8462;53.156;8.220;2023-01-13T05:09:48;12.10;;;3.17;;
7657;SDS011;8462;53.156;8.220;2023-01-13T05:12:15;10.67;;;3.17;;
7657;SDS011;8462;53.156;8.220;2023-01-13T05:15:00;15.90;;;4.33;;
7657;SDS011;8462;53.156;8.220;2023-01-13T05:17:44;13.23;;;3.83;;
7657;SDS011;8462;53.156;8.220;2023-01-13T05:20:11;19.90;;;3.93;;
7657;SDS011;8462;53.156;8.220;2023-01-13T05:22:39;15.33;;;3.70;;
7657;SDS011;8462;53.156;8.220;2023-01-13T05:25:25;18.63;;;3.77;;
7657;SDS011;8462;53.156;8.220;2023-01-13T05:27:53;10.83;;;3.30;;
7657;SDS011;8462;53.156;8.220;2023-01-13T05:30:21;13.37;;;3.63;;
7657;SDS011;8462;53.156;8.220;2023-01-13T05:32:51;14.83;;;3.20;;
7657;SDS011;8462;53.156;8.220;2023-01-13T05:35:18;14.17;;;3.53;;
7657;SDS011;8462;53.156;8.220;2023-01-13T05:37:45;14.67;;;3.80;;
7657;SDS011;8462;53.156;8.220;2023-01-13T05:40:13;13.73;;;3.00;;
7657;SDS011;8462;53.156;8.220;2023-01-13T05:43:01;13.73;;;3.00;;
7657;SDS011;8462;53.156;8.220;2023-01-13T05:45:45;17.67;;;3.43;;
7657;SDS011;8462;53.156;8.220;2023-01-13T05:48:13;14.93;;;3.33;;
7657;SDS011;8462;53.156;8.220;2023-01-13T05:50:40;13.67;;;3.40;;
7657;SDS011;8462;53.156;8.220;2023-01-13T05:53:07;14.33;;;3.73;;
7657;SDS011;8462;53.156;8.220;2023-01-13T05:55:36;24.73;;;4.40;;
7657;SDS011;8462;53.156;8.220;2023-01-13T05:58:05;18.30;;;3.30;;
7657;SDS011;8462;53.156;8.220;2023-01-13T06:00:32;19.47;;;3.47;;
7657;SDS011;8462;53.156;8.220;2023-01-13T06:02:59;17.63;;;3.87;;
7657;SDS011;8462;53.156;8.220;2023-01-13T06:05:26;13.93;;;4.10;;
7657;SDS011;8462;53.156;8.220;2023-01-13T06:07:55;14.60;;;3.20;;
7657;SDS011;8462;53.156;8.220;2023-01-13T06:10:22;12.50;;;3.43;;
7657;SDS011;8462;53.156;8.220;2023-01-13T06:12:50;21.73;;;3.70;;
7657;SDS011;8462;53.156;8.220;2023-01-13T06:15:18;11.10;;;3.43;;
7657;SDS011;8462;53.156;8.220;2023-01-13T06:17:46;11.90;;;3.77;;
7657;SDS011;8462;53.156;8.220;2023-01-13T06:20:13;13.93;;;3.33;;
7657;SDS011;8462;53.156;8.220;2023-01-13T06:22:41;21.17;;;3.40;;
7657;SDS011;8462;53.156;8.220;2023-01-13T06:25:11;13.33;;;3.97;;
7657;SDS011;8462;53.156;8.220;2023-01-13T06:27:43;10.87;;;3.23;;
7657;SDS011;8462;53.156;8.220;2023-01-13T06:30:11;13.93;;;4.20;;
7657;SDS011;8462;53.156;8.220;2023-01-13T06:32:40;13.47;;;3.83;;
7657;SDS011;8462;53.156;8.220;2023-01-13T06:35:10;19.17;;;4.07;;
7657;SDS011;8462;53.156;8.220;2023-01-13T06:37:40;12.93;;;3.07;;
7657;SDS011;8462;53.156;8.220;2023-01-13T06:40:09;10.97;;;2.50;;
7657;SDS011;8462;53.156;8.220;2023-01-13T06:42:40;9.47;;;2.27;;
7657;SDS011;8462;53.156;8.220;2023-01-13T06:45:24;12.27;;;3.70;;
7657;SDS011;8462;53.156;8.220;2023-01-13T06:47:55;14.57;;;2.90;;
7657;SDS011;8462;53.156;8.220;2023-01-13T06:50:23;12.43;;;3.03;;
7657;SDS011;8462;53.156;8.220;2023-01-13T06:52:54;13.57;;;3.33;;
7657;SDS011;8462;53.156;8.220;2023-01-13T06:55:23;13.43;;;3.27;;
7657;SDS011;8462;53.156;8.220;2023-01-13T06:57:50;11.77;;;3.00;;
7657;SDS011;8462;53.156;8.220;2023-01-13T07:00:18;11.07;;;3.07;;
7657;SDS011;8462;53.156;8.220;2023-01-13T07:02:46;9.97;;;2.67;;
7657;SDS011;8462;53.156;8.220;2023-01-13T07:05:15;9.00;;;2.50;;
7657;SDS011;8462;53.156;8.220;2023-01-13T07:07:42;9.80;;;3.07;;
7657;SDS011;8462;53.156;8.220;2023-01-13T07:10:10;10.90;;;2.97;;
7657;SDS011;8462;53.156;8.220;2023-01-13T07:12:47;9.27;;;3.73;;
7657;SDS011;8462;53.156;8.220;2023-01-13T07:15:33;14.40;;;2.73;;
7657;SDS011;8462;53.156;8.220;2023-01-13T07:18:00;8.63;;;3.33;;
7657;SDS011;8462;53.156;8.220;2023-01-13T07:20:29;10.60;;;2.33;;
7657;SDS011;8462;53.156;8.220;2023-01-13T07:22:56;11.83;;;2.40;;
7657;SDS011;8462;53.156;8.220;2023-01-13T07:25:23;9.13;;;2.67;;
7657;SDS011;8462;53.156;8.220;2023-01-13T07:27:50;10.90;;;2.90;;
7657;SDS011;8462;53.156;8.220;2023-01-13T07:30:17;9.27;;;2.70;;
7657;SDS011;8462;53.156;8.220;2023-01-13T07:32:44;11.77;;;2.40;;
7657;SDS011;8462;53.156;8.220;2023-01-13T07:35:11;13.60;;;2.77;;
7657;SDS011;8462;53.156;8.220;2023-01-13T07:37:39;10.83;;;2.83;;
7657;SDS011;8462;53.156;8.220;2023-01-13T07:40:06;15.17;;;2.27;;
7657;SDS011;8462;53.156;8.220;2023-01-13T07:42:36;11.83;;;3.07;;
7657;SDS011;8462;53.156;8.220;2023-01-13T07:45:22;10.83;;;3.00;;
7657;SDS011;8462;53.156;8.220;2023-01-13T07:47:52;9.97;;;2.67;;
7657;SDS011;8462;53.156;8.220;2023-01-13T07:50:22;16.37;;;2.37;;
7657;SDS011;8462;53.156;8.220;2023-01-13T07:52:50;13.33;;;2.23;;
7657;SDS011;8462;53.156;8.220;2023-01-13T07:55:17;11.67;;;2.30;;
7657;SDS011;8462;53.156;8.220;2023-01-13T07:57:47;7.80;;;2.03;;
7657;SDS011;8462;53.156;8.220;2023-01-13T08:00:14;9.47;;;2.20;;
7657;SDS011;8462;53.156;8.220;2023-01-13T08:02:42;15.50;;;2.83;;
7657;SDS011;8462;53.156;8.220;2023-01-13T08:05:09;8.10;;;2.20;;
7657;SDS011;8462;53.156;8.220;2023-01-13T08:07:36;10.13;;;2.43;;
7657;SDS011;8462;53.156;8.220;2023-01-13T08:10:07;9.63;;;2.80;;
7657;SDS011;8462;53.156;8.220;2023-01-13T08:12:40;8.10;;;2.27;;
7657;SDS011;8462;53.156;8.220;2023-01-13T08:15:26;8.53;;;2.03;;
7657;SDS011;8462;53.156;8.220;2023-01-13T08:17:56;8.60;;;1.70;;
7657;SDS011;8462;53.156;8.220;2023-01-13T08:20:23;7.40;;;1.80;;
7657;SDS011;8462;53.156;8.220;2023-01-13T08:22:54;10.77;;;2.63;;
7657;SDS011;8462;53.156;8.220;2023-01-13T08:25:24;9.40;;;1.93;;
7657;SDS011;8462;53.156;8.220;2023-01-13T08:27:52;11.23;;;2.03;;
7657;SDS011;8462;53.156;8.220;2023-01-13T08:30:20;7.70;;;1.73;;
7657;SDS011;8462;53.156;8.220;2023-01-13T08:32:47;7.20;;;2.17;;
7657;SDS011;8462;53.156;8.220;2023-01-13T08:35:16;7.30;;;2.20;;
7657;SDS011;8462;53.156;8.220;2023-01-13T08:37:44;8.07;;;1.90;;
7657;SDS011;8462;53.156;8.220;2023-01-13T08:40:12;11.10;;;2.23;;
7657;SDS011;8462;53.156;8.220;2023-01-13T08:42:41;4.83;;;1.43;;
7657;SDS011;8462;53.156;8.220;2023-01-13T08:45:09;15.27;;;2.53;;
7657;SDS011;8462;53.156;8.220;2023-01-13T08:47:36;7.37;;;1.77;;
7657;SDS011;8462;53.156;8.220;2023-01-13T08:50:03;6.87;;;1.60;;
7657;SDS011;8462;53.156;8.220;2023-01-13T08:52:33;12.23;;;2.70;;
7657;SDS011;8462;53.156;8.220;2023-01-13T08:55:00;11.93;;;1.93;;
7657;SDS011;8462;53.156;8.220;2023-01-13T08:57:27;11.57;;;2.13;;
7657;SDS011;8462;53.156;8.220;2023-01-13T08:59:56;6.43;;;1.80;;
7657;SDS011;8462;53.156;8.220;2023-01-13T09:02:24;9.37;;;1.77;;
7657;SDS011;8462;53.156;8.220;2023-01-13T09:04:51;5.60;;;1.60;;
7657;SDS011;8462;53.156;8.220;2023-01-13T09:07:21;9.30;;;2.20;;
7657;SDS011;8462;53.156;8.220;2023-01-13T09:09:48;11.03;;;2.67;;
7657;SDS011;8462;53.156;8.220;2023-01-13T09:12:15;8.67;;;1.80;;
7657;SDS011;8462;53.156;8.220;2023-01-13T09:15:01;7.20;;;2.13;;
7657;SDS011;8462;53.156;8.220;2023-01-13T09:17:31;8.23;;;1.83;;
7657;SDS011;8462;53.156;8.220;2023-01-13T09:19:59;7.37;;;2.80;;
7657;SDS011;8462;53.156;8.220;2023-01-13T09:22:28;10.40;;;2.40;;
7657;SDS011;8462;53.156;8.220;2023-01-13T09:24:56;6.90;;;1.50;;
7657;SDS011;8462;53.156;8.220;2023-01-13T09:27:23;9.03;;;1.97;;
7657;SDS011;8462;53.156;8.220;2023-01-13T09:29:50;6.27;;;1.90;;
7657;SDS011;8462;53.156;8.220;2023-01-13T09:32:18;7.63;;;2.17;;
7657;SDS011;8462;53.156;8.220;2023-01-13T09:34:45;11.50;;;2.20;;
7657;SDS011;8462;53.156;8.220;2023-01-13T09:37:27;8.23;;;2.63;;
7657;SDS011;8462;53.156;8.220;2023-01-13T09:39:54;6.87;;;2.40;;
7657;SDS011;8462;53.156;8.220;2023-01-13T09:42:32;9.73;;;3.00;;
7657;SDS011;8462;53.156;8.220;2023-01-13T09:45:27;7.67;;;2.23;;
7657;SDS011;8462;53.156;8.220;2023-01-13T09:48:00;5.03;;;1.53;;
7657;SDS011;8462;53.156;8.220;2023-01-13T09:50:32;5.67;;;1.60;;
7657;SDS011;8462;53.156;8.220;2023-01-13T09:53:12;4.07;;;1.60;;
7657;SDS011;8462;53.156;8.220;2023-01-13T09:55:44;7.93;;;2.50;;
7657;SDS011;8462;53.156;8.220;2023-01-13T09:58:12;5.13;;;2.17;;
7657;SDS011;8462;53.156;8.220;2023-01-13T10:00:42;10.00;;;2.50;;
7657;SDS011;8462;53.156;8.220;2023-01-13T10:03:18;7.63;;;1.70;;
7657;SDS011;8462;53.156;8.220;2023-01-13T10:05:49;10.07;;;2.00;;
7657;SDS011;8462;53.156;8.220;2023-01-13T10:08:22;8.47;;;1.80;;
7657;SDS011;8462;53.156;8.220;2023-01-13T10:10:53;7.93;;;1.70;;
7657;SDS011;8462;53.156;8.220;2023-01-13T10:13:23;2.23;;;1.27;;
7657;SDS011;8462;53.156;8.220;2023-01-13T10:15:53;8.03;;;2.00;;
7657;SDS011;8462;53.156;8.220;2023-01-13T10:18:31;8.97;;;1.70;;
7657;SDS011;8462;53.156;8.220;2023-01-13T10:21:10;6.03;;;1.87;;
7657;SDS011;8462;53.156;8.220;2023-01-13T10:23:51;4.47;;;1.33;;
7657;SDS011;8462;53.156;8.220;2023-01-13T10:26:26;9.10;;;2.03;;
7657;SDS011;8462;53.156;8.220;2023-01-13T10:29:16;12.47;;;1.90;;
7657;SDS011;8462;53.156;8.220;2023-01-13T10:31:46;4.47;;;1.40;;
7657;SDS011;8462;53.156;8.220;2023-01-13T10:34:15;9.73;;;2.33;;
7657;SDS011;8462;53.156;8.220;2023-01-13T10:36:45;11.27;;;2.43;;
7657;SDS011;8462;53.156;8.220;2023-01-13T10:39:24;11.13;;;2.10;;
7657;SDS011;8462;53.156;8.220;2023-01-13T10:42:01;6.33;;;2.07;;
7657;SDS011;8462;53.156;8.220;2023-01-13T10:44:29;11.40;;;2.60;;
7657;SDS011;8462;53.156;8.220;2023-01-13T10:46:56;11.13;;;2.50;;
7657;SDS011;8462;53.156;8.220;2023-01-13T10:49:29;13.97;;;2.73;;
7657;SDS011;8462;53.156;8.220;2023-01-13T10:51:58;8.43;;;2.43;;
7657;SDS011;8462;53.156;8.220;2023-01-13T10:54:26;5.77;;;1.53;;
7657;SDS011;8462;53.156;8.220;2023-01-13T10:57:12;8.50;;;1.93;;
7657;SDS011;8462;53.156;8.220;2023-01-13T10:59:43;7.33;;;1.90;;
7657;SDS011;8462;53.156;8.220;2023-01-13T11:02:23;7.90;;;2.10;;
7657;SDS011;8462;53.156;8.220;2023-01-13T11:04:58;11.50;;;2.50;;
7657;SDS011;8462;53.156;8.220;2023-01-13T11:07:36;9.07;;;2.27;;
7657;SDS011;8462;53.156;8.220;2023-01-13T11:10:17;9.13;;;2.47;;
7657;SDS011;8462;53.156;8.220;2023-01-13T11:12:48;10.77;;;2.30;;
7657;SDS011;8462;53.156;8.220;2023-01-13T11:15:22;8.93;;;2.10;;
7657;SDS011;8462;53.156;8.220;2023-01-13T11:17:59;5.00;;;1.87;;
7657;SDS011;8462;53.156;8.220;2023-01-13T11:20:31;16.10;;;2.37;;
7657;SDS011;8462;53.156;8.220;2023-01-13T11:23:02;7.17;;;2.40;;
7657;SDS011;8462;53.156;8.220;2023-01-13T11:25:37;14.47;;;3.20;;
7657;SDS011;8462;53.156;8.220;2023-01-13T11:28:14;9.83;;;1.83;;
7657;SDS011;8462;53.156;8.220;2023-01-13T11:30:57;11.97;;;2.87;;
7657;SDS011;8462;53.156;8.220;2023-01-13T11:33:34;7.17;;;2.20;;
7657;SDS011;8462;53.156;8.220;2023-01-13T11:36:07;10.97;;;2.77;;
7657;SDS011;8462;53.156;8.220;2023-01-13T11:38:45;6.00;;;2.00;;
7657;SDS011;8462;53.156;8.220;2023-01-13T11:41:27;7.57;;;2.13;;
7657;SDS011;8462;53.156;8.220;2023-01-13T11:44:13;5.43;;;2.33;;
7657;SDS011;8462;53.156;8.220;2023-01-13T11:46:46;9.77;;;2.23;;
7657;SDS011;8462;53.156;8.220;2023-01-13T11:49:21;5.10;;;1.83;;
7657;SDS011;8462;53.156;8.220;2023-01-13T11:51:53;10.10;;;2.07;;
7657;SDS011;8462;53.156;8.220;2023-01-13T11:54:38;12.20;;;2.77;;
7657;SDS011;8462;53.156;8.220;2023-01-13T11:57:19;8.73;;;2.17;;
7657;SDS011;8462;53.156;8.220;2023-01-13T12:02:51;6.57;;;1.97;;
7657;SDS011;8462;53.156;8.220;2023-01-13T12:05:25;8.53;;;2.33;;
7657;SDS011;8462;53.156;8.220;2023-01-13T12:08:08;9.03;;;2.23;;
7657;SDS011;8462;53.156;8.220;2023-01-13T12:10:50;7.23;;;2.53;;
7657;SDS011;8462;53.156;8.220;2023-01-13T12:13:32;8.87;;;2.73;;
7657;SDS011;8462;53.156;8.220;2023-01-13T12:16:10;10.57;;;1.90;;
7657;SDS011;8462;53.156;8.220;2023-01-13T12:22:08;9.87;;;1.90;;
7657;SDS011;8462;53.156;8.220;2023-01-13T12:24:44;8.00;;;2.07;;
7657;SDS011;8462;53.156;8.220;2023-01-13T12:27:18;10.33;;;2.63;;
7657;SDS011;8462;53.156;8.220;2023-01-13T12:29:50;11.20;;;2.33;;
7657;SDS011;8462;53.156;8.220;2023-01-13T12:32:24;9.77;;;1.67;;
7657;SDS011;8462;53.156;8.220;2023-01-13T12:35:00;8.13;;;2.70;;
7657;SDS011;8462;53.156;8.220;2023-01-13T12:37:41;9.40;;;2.63;;
7657;SDS011;8462;53.156;8.220;2023-01-13T12:40:20;6.70;;;3.10;;
7657;SDS011;8462;53.156;8.220;2023-01-13T12:43:02;10.50;;;2.87;;
7657;SDS011;8462;53.156;8.220;2023-01-13T12:49:05;9.70;;;2.30;;
7657;SDS011;8462;53.156;8.220;2023-01-13T12:57:55;8.40;;;1.97;;
7657;SDS011;8462;53.156;8.220;2023-01-13T13:00:29;8.37;;;1.80;;
7657;SDS011;8462;53.156;8.220;2023-01-13T13:05:55;9.70;;;2.30;;
7657;SDS011;8462;53.156;8.220;2023-01-13T13:08:39;12.57;;;2.63;;
7657;SDS011;8462;53.156;8.220;2023-01-13T13:11:19;8.33;;;1.97;;
7657;SDS011;8462;53.156;8.220;2023-01-13T13:14:09;9.73;;;2.67;;
7657;SDS011;8462;53.156;8.220;2023-01-13T13:16:45;7.40;;;2.10;;
7657;SDS011;8462;53.156;8.220;2023-01-13T13:25:20;6.67;;;1.90;;
7657;SDS011;8462;53.156;8.220;2023-01-13T13:27:53;6.13;;;2.20;;
7657;SDS011;8462;53.156;8.220;2023-01-13T13:30:44;7.70;;;2.07;;
7657;SDS011;8462;53.156;8.220;2023-01-13T13:33:23;12.17;;;2.43;;
7657;SDS011;8462;53.156;8.220;2023-01-13T13:36:07;5.83;;;2.17;;
7657;SDS011;8462;53.156;8.220;2023-01-13T13:38:55;6.47;;;2.13;;
7657;SDS011;8462;53.156;8.220;2023-01-13T13:41:49;8.37;;;2.37;;
7657;SDS011;8462;53.156;8.220;2023-01-13T13:44:37;8.43;;;2.73;;
7657;SDS011;8462;53.156;8.220;2023-01-13T13:47:25;9.83;;;2.50;;
7657;SDS011;8462;53.156;8.220;2023-01-13T13:50:05;8.17;;;2.63;;
7657;SDS011;8462;53.156;8.220;2023-01-13T13:52:35;13.13;;;2.40;;
7657;SDS011;8462;53.156;8.220;2023-01-13T13:55:07;8.67;;;2.13;;
7657;SDS011;8462;53.156;8.220;2023-01-13T13:57:46;8.43;;;2.00;;
7657;SDS011;8462;53.156;8.220;2023-01-13T14:00:21;10.60;;;2.03;;
7657;SDS011;8462;53.156;8.220;2023-01-13T14:02:51;7.30;;;2.13;;
7657;SDS011;8462;53.156;8.220;2023-01-13T14:05:22;10.30;;;2.77;;
7657;SDS011;8462;53.156;8.220;2023-01-13T14:07:51;10.30;;;2.33;;
7657;SDS011;8462;53.156;8.220;2023-01-13T14:10:26;13.77;;;2.10;;
7657;SDS011;8462;53.156;8.220;2023-01-13T14:12:55;9.50;;;2.20;;
7657;SDS011;8462;53.156;8.220;2023-01-13T14:15:25;6.53;;;2.10;;
7657;SDS011;8462;53.156;8.220;2023-01-13T14:17:57;6.67;;;2.03;;
7657;SDS011;8462;53.156;8.220;2023-01-13T14:20:24;5.50;;;1.90;;
7657;SDS011;8462;53.156;8.220;2023-01-13T14:22:53;8.30;;;2.90;;
7657;SDS011;8462;53.156;8.220;2023-01-13T14:25:26;11.30;;;2.20;;
7657;SDS011;8462;53.156;8.220;2023-01-13T14:27:58;6.77;;;1.57;;
7657;SDS011;8462;53.156;8.220;2023-01-13T14:30:30;10.53;;;2.10;;
7657;SDS011;8462;53.156;8.220;2023-01-13T14:33:00;8.23;;;2.13;;
7657;SDS011;8462;53.156;8.220;2023-01-13T14:35:28;4.03;;;1.40;;
7657;SDS011;8462;53.156;8.220;2023-01-13T14:38:00;3.87;;;1.50;;
7657;SDS011;8462;53.156;8.220;2023-01-13T14:40:41;7.13;;;2.33;;
7657;SDS011;8462;53.156;8.220;2023-01-13T14:43:12;11.03;;;2.40;;
7657;SDS011;8462;53.156;8.220;2023-01-13T14:45:41;5.43;;;1.63;;
7657;SDS011;8462;53.156;8.220;2023-01-13T14:48:21;6.83;;;2.17;;
7657;SDS011;8462;53.156;8.220;2023-01-13T14:50:56;7.73;;;2.13;;
7657;SDS011;8462;53.156;8.220;2023-01-13T14:53:25;7.73;;;2.67;;
7657;SDS011;8462;53.156;8.220;2023-01-13T14:55:55;8.50;;;2.03;;
7657;SDS011;8462;53.156;8.220;2023-01-13T14:58:23;6.87;;;1.80;;
7657;SDS011;8462;53.156;8.220;2023-01-13T15:04:00;8.93;;;2.37;;
7657;SDS011;8462;53.156;8.220;2023-01-13T15:06:44;7.73;;;2.50;;
7657;SDS011;8462;53.156;8.220;2023-01-13T15:09:12;9.00;;;1.93;;
7657;SDS011;8462;53.156;8.220;2023-01-13T15:11:39;9.20;;;1.93;;
7657;SDS011;8462;53.156;8.220;2023-01-13T15:14:08;10.77;;;2.10;;
7657;SDS011;8462;53.156;8.220;2023-01-13T15:16:36;9.43;;;1.83;;
7657;SDS011;8462;53.156;8.220;2023-01-13T15:19:04;9.30;;;2.23;;
7657;SDS011;8462;53.156;8.220;2023-01-13T15:21:31;7.20;;;2.53;;
7657;SDS011;8462;53.156;8.220;2023-01-13T15:23:59;5.33;;;2.00;;
7657;SDS011;8462;53.156;8.220;2023-01-13T15:26:27;9.50;;;1.90;;
7657;SDS011;8462;53.156;8.220;2023-01-13T15:28:55;5.17;;;1.80;;
7657;SDS011;8462;53.156;8.220;2023-01-13T15:31:23;4.37;;;1.50;;
7657;SDS011;8462;53.156;8.220;2023-01-13T15:33:51;10.13;;;2.17;;
7657;SDS011;8462;53.156;8.220;2023-01-13T15:36:21;6.10;;;1.50;;
7657;SDS011;8462;53.156;8.220;2023-01-13T15:38:51;4.27;;;1.70;;
7657;SDS011;8462;53.156;8.220;2023-01-13T15:41:18;4.47;;;1.20;;
7657;SDS011;8462;53.156;8.220;2023-01-13T15:44:06;4.53;;;1.80;;
7657;SDS011;8462;53.156;8.220;2023-01-13T15:46:52;7.20;;;1.90;;
7657;SDS011;8462;53.156;8.220;2023-01-13T15:49:21;9.40;;;1.77;;
7657;SDS011;8462;53.156;8.220;2023-01-13T15:51:53;7.03;;;1.83;;
7657;SDS011;8462;53.156;8.220;2023-01-13T15:54:20;8.37;;;1.70;;
7657;SDS011;8462;53.156;8.220;2023-01-13T15:56:48;11.73;;;3.27;;
7657;SDS011;8462;53.156;8.220;2023-01-13T15:59:16;9.77;;;1.80;;
7657;SDS011;8462;53.156;8.220;2023-01-13T16:01:46;6.87;;;2.60;;
7657;SDS011;8462;53.156;8.220;2023-01-13T16:04:13;7.83;;;1.93;;
7657;SDS011;8462;53.156;8.220;2023-01-13T16:06:40;8.37;;;2.30;;
7657;SDS011;8462;53.156;8.220;2023-01-13T16:09:09;7.50;;;1.70;;